Terminal Aerodrome Forecast
Issued by NWS

Home | Current Version | Previous Version | Text Only | Print | Product List | Glossary On
Versions: 1 2 3 4 5 6 7 8 9 10 11 12 13 14 15 16 17
000
FTUS46 KSEW 251700 RRA
TAFBFI
TAF
KBFI 251735Z 2518/2618 VRB05KT P6SM SCT030 BKN090
      TEMPO 2518/2521 -RA BKN030 OVC080
     FM252100 09006KT P6SM -RA SCT025 OVC045
      TEMPO 2521/2601 4SM -RA BR OVC025
     FM260100 19016G24KT P6SM -RA OVC022
      TEMPO 2604/2608 19024G32KT
     FM261300 20012G20KT P6SM -SHRA BKN015 BKN035=

USA.gov is the U.S. government's official web portal to all federal, state and local government web resources and services.